Tuesday, July 22, 2014, 9:24 AM EDT

KTHV, York Airport

Location: Spring Grove, PA, United States Lat: 39.917
Local Time: 9:24 AM EDT (13:24 GMT) Lon: -76.883
Time Zone: US/Eastern Elev: 478 ft

Show me the last for .
Show Decoded

2014-07-22 08:53 METAR KTHV 221253Z AUTO 21005KT 9SM OVC026 23/21 A3020 RMK AO2 SLP224 T02280206
                 =
2014-07-22 07:53 METAR KTHV 221153Z AUTO 20003KT 10SM FEW007 OVC024 22/20 A3020 RMK AO2 SLP225
                 T02220200 10222 20172 51007 =
2014-07-22 07:51 METAR KTHV 221151Z AUTO 00000KT 10SM FEW007 OVC023 22/20 A3020 RMK AO2 =
2014-07-22 05:53 METAR KTHV 220953Z AUTO 00000KT 8SM OVC019 20/19 A3018 RMK AO2 SLP218 T02000189
                 =
2014-07-22 04:53 METAR KTHV 220853Z AUTO 00000KT 10SM FEW015 OVC050 19/18 A3017 RMK AO2 SLP216
                 T01890178 55001 =
2014-07-22 03:53 METAR KTHV 220753Z AUTO 00000KT 6SM BR BKN050 18/17 A3017 RMK AO2 SLP215
                 T01780172 =
2014-07-22 02:53 METAR KTHV 220653Z AUTO 00000KT 10SM FEW025 18/17 A3017 RMK AO2 SLP215 T01780167
                 TSNO =
2014-07-22 01:53 METAR KTHV 220553Z AUTO 00000KT 10SM CLR 19/17 A3017 RMK AO2 SLP217 T01890172
                 10250 20189 58000 =
2014-07-22 00:53 METAR KTHV 220453Z AUTO 21003KT 10SM CLR 21/18 A3018 RMK AO2 SLP218 T02110178
                 402670183 =
2014-07-21 23:53 METAR KTHV 220353Z AUTO 20005KT 10SM CLR 22/18 A3018 RMK AO2 SLP217 T02220183 =
2014-07-21 21:53 METAR KTHV 220153Z AUTO 00000KT 10SM CLR 21/18 A3017 RMK AO2 SLP217 T02110183 =
2014-07-21 20:53 METAR KTHV 220053Z AUTO 00000KT 10SM CLR 23/18 A3016 RMK AO2 SLP213 T02280183 =
2014-07-21 19:53 METAR KTHV 212353Z AUTO 00000KT 10SM BKN060 25/19 A3017 RMK AO2 SLP215 T02500189
                 10267 20250 53001 =
2014-07-21 18:53 METAR KTHV 212253Z AUTO 15004KT 10SM CLR 26/19 A3016 RMK AO2 SLP211 T02610189 =
2014-07-21 17:53 METAR KTHV 212153Z AUTO 16005KT 10SM SCT031 BKN110 26/19 A3016 RMK AO2 SLP212
                 T02610194 =
2014-07-21 16:53 METAR KTHV 212053Z AUTO VRB03KT 10SM FEW040 SCT047 OVC110 26/19 A3017 RMK AO2
                 SLP214 T02610194 56008 =
2014-07-21 15:53 METAR KTHV 211953Z AUTO 16004KT 10SM BKN047 BKN055 OVC070 26/19 A3017 RMK AO2
                 SLP214 T02610189 =
2014-07-21 14:53 METAR KTHV 211853Z AUTO 00000KT 10SM OVC039 25/19 A3018 RMK AO2 SLP217 T02500189
                 =
2014-07-21 13:53 METAR KTHV 211753Z AUTO 00000KT 10SM OVC041 26/19 A3019 RMK AO2 SLP222 T02560189
                 10256 20211 58005 =
2014-07-21 12:53 METAR KTHV 211653Z AUTO 23003KT 10SM OVC049 24/19 A3020 RMK AO2 SLP224 T02440189
                 =
2014-07-21 11:53 METAR KTHV 211553Z AUTO 00000KT 10SM FEW023 SCT049 OVC060 24/18 A3020 RMK AO2
                 SLP225 T02440183 =
2014-07-21 11:45 METAR KTHV 211545Z AUTO 00000KT 10SM SCT023 BKN055 OVC065 24/19 A3020 RMK AO2
                 T02440189 =
2014-07-21 11:03 METAR KTHV 211503Z AUTO VRB03KT 10SM BKN022 OVC055 24/18 A3020 RMK AO2 T02390183
                 =
2014-07-21 10:53 METAR KTHV 211453Z AUTO VRB03KT 10SM SCT021 OVC060 24/19 A3020 RMK AO2 SLP227
                 T02440189 51005 =
2014-07-21 10:02 METAR KTHV 211402Z AUTO 13003KT 10SM SCT021 BKN060 OVC070 23/19 A3020 RMK AO2
                 T02280189 =
2014-07-21 09:53 METAR KTHV 211353Z AUTO 00000KT 10SM SCT015 BKN021 OVC065 23/19 A3020 RMK AO2
                 SLP227 T02280189 =

Support USWX by starting your Amazon purchase here.